CYTZ/YTZ METAR and TAF weather

Enter ICAO airport designator
Station Type Date Time Source
CYTZ METAR 2017/05/23 03:00 UTC NOAA

CYTZ 230300Z AUTO 30003KT 240V310 9SM CLR 10/08 A2996 RMK SLP148


Station Type Date Time Source
CYTZ Decoded METAR 2017/05/23 03:00 UTC NOAA

Toronto Island Airport Automated Reporting Station, Canada (CYTZ) 43-38N 079-24W
May 22, 2017 - 11:00 PM EDT / 2017.05.23 0300 UTC
Wind: from the WNW (300 degrees) at 3 MPH (3 KT) (direction variable):0
Visibility: 9 mile(s):0
Sky conditions: clear
Temperature: 50 F (10 C)
Dew Point: 46 F (8 C)
Relative Humidity: 87%
Pressure (altimeter): 29.96 in. Hg (1014 hPa)
ob: CYTZ 230300Z AUTO 30003KT 240V310 9SM CLR 10/08 A2996 RMK SLP148
cycle: 3

Station Type Date Time Source
CYTZ TAF 2017/05/23 02:50 UTC NOAA

TAF CYTZ 230139Z 2302/2402 24007KT P6SM FEW060
FM230800 VRB03KT P6SM BKN060
BECMG 2312/2314 24007KT
FM231700 21012KT P6SM BKN040 BKN110
TEMPO 2318/2321 P6SM -SHRA
FM232100 18006KT P6SM SCT060 BKN120
BECMG 2322/2324 10007KT
RMK FCST BASED ON AUTO OBS. NXT FCST BY 230800Z


Example: see airport list